Terminal Aerodrome Forecast
Issued by NWS

Home | Current Version | Previous Version | Text Only | Print | Product List | Glossary On
Versions: 1 2 3 4 5 6 7 8 9 10 11 12 13 14 15 16 17 18 19 20 21
000
FTUS43 KLOT 290530
TAFDPA
TAF
KDPA 290530Z 2906/3006 36012KT P6SM VCSH BKN050
     FM291400 03018G28KT P6SM VCSH BKN025
      TEMPO 2921/3001 6SM SHRA BKN015
     FM300100 04012KT P6SM BKN010=

USA.gov is the U.S. government's official web portal to all federal, state and local government web resources and services.